< Typhoon 195902 1959 Season Typhoon 195904 >
Typhoon 195903 (TILDA)
General InformationTrack Information on Google Maps || Disaster Info.ResourceGoogle EarthGE AnimationAtom FeedGeoJSON
Detalied Best Track (Time Zone = UTC)
Year Month Day Hour Lat. Long. Pressure (hPa) Wind (kt) Class Image Chart
1959 4 13 18 4.6 148.6 1004 0 2 -- Chart
1959 4 14 00 5.3 148.3 1002 0 2 -- Chart
1959 4 14 06 6.0 148.0 1000 0 9 -- Chart
1959 4 14 12 6.7 147.5 1000 0 9 -- Chart
1959 4 14 18 7.2 146.8 995 0 9 -- Chart
1959 4 15 00 7.3 146.6 992 0 9 -- Chart
1959 4 15 06 7.5 146.6 990 0 9 -- Chart
1959 4 15 12 8.0 146.2 985 0 9 -- Chart
1959 4 15 18 8.6 145.8 980 0 9 -- Chart
1959 4 16 00 9.2 145.4 965 0 9 -- Chart
1959 4 16 06 9.7 144.6 960 0 9 -- Chart
1959 4 16 12 10.1 143.8 955 0 9 -- Chart
1959 4 16 18 10.2 143.1 950 0 9 -- Chart
1959 4 17 00 10.4 142.5 945 0 9 -- Chart
1959 4 17 06 10.6 142.0 940 0 9 -- Chart
1959 4 17 12 11.2 141.4 935 0 9 -- Chart
1959 4 17 18 11.8 140.8 930 0 9 -- Chart
1959 4 18 00 12.2 139.9 930 0 9 -- Chart
1959 4 18 06 12.5 139.2 930 0 9 -- Chart
1959 4 18 12 12.9 138.6 930 0 9 -- Chart
1959 4 18 18 13.3 137.9 930 0 9 -- Chart
1959 4 19 00 13.7 137.7 930 0 9 -- Chart
1959 4 19 06 14.5 137.2 930 0 9 -- Chart
1959 4 19 12 15.4 136.9 930 0 9 -- Chart
1959 4 19 18 16.2 136.7 935 0 9 -- Chart
1959 4 20 00 16.9 136.5 940 0 9 -- Chart
1959 4 20 06 17.4 136.6 945 0 9 -- Chart
1959 4 20 12 18.0 136.7 950 0 9 -- Chart
1959 4 20 18 18.5 136.9 960 0 9 -- Chart
1959 4 21 00 18.7 137.1 975 0 9 -- Chart
1959 4 21 06 18.7 137.6 985 0 9 -- Chart
1959 4 21 12 18.5 137.6 985 0 9 -- Chart
1959 4 21 18 18.5 137.4 990 0 9 -- Chart
1959 4 22 00 19.3 137.0 995 0 9 -- Chart
1959 4 22 06 20.7 137.0 995 0 9 -- Chart
1959 4 22 12 21.3 137.3 995 0 9 -- Chart
1959 4 22 18 22.2 137.7 995 0 9 -- Chart
1959 4 23 00 24.5 139.6 995 0 9 -- Chart
1959 4 23 06 27.0 141.6 1000 0 9 -- Chart
1959 4 23 12 29.0 143.7 1004 0 9 -- Chart
Japan Meteorological Agency Best Track Data | Correction Date : 1989-06-01
< Typhoon 195902 1959 Season Typhoon 195904 >

Help